createdAt,value
2022-08-22T00:02:24.879Z,101548.81
2022-08-22T00:05:10.806Z,101565.63
2022-08-22T00:07:50.414Z,101552.44
2022-08-22T00:10:35.032Z,101572.53
2022-08-22T00:13:19.744Z,101557.69
2022-08-22T00:16:29.324Z,101565.66
2022-08-22T00:19:07.950Z,101568.06
2022-08-22T00:21:58.775Z,101560.94
2022-08-22T00:24:41.976Z,101563.28
2022-08-22T00:27:23.524Z,101552.97
2022-08-22T00:30:03.526Z,101563.28
2022-08-22T00:32:39.092Z,101564.13
2022-08-22T00:35:24.248Z,101566.41
2022-08-22T00:38:06.161Z,101564.13
2022-08-22T00:40:41.782Z,101564.88
2022-08-22T00:43:27.607Z,101558.84
2022-08-22T00:46:18.992Z,101557.06
2022-08-22T00:49:09.885Z,101563.03
2022-08-22T00:51:50.667Z,101557.66
2022-08-22T00:54:29.048Z,101569.22
2022-08-22T00:57:33.423Z,101566.06
2022-08-22T01:00:18.002Z,101566.53
2022-08-22T01:03:05.804Z,101554.41
2022-08-22T01:05:53.100Z,101567.59
2022-08-22T01:08:41.193Z,101560.53
2022-08-22T01:11:35.261Z,101573.34
2022-08-22T01:14:13.835Z,101562.00
2022-08-22T01:17:05.352Z,101558.72
2022-08-22T01:19:31.865Z,101567.09
2022-08-22T01:22:23.431Z,101563.34
2022-08-22T01:25:22.361Z,101566.56
2022-08-22T01:28:13.571Z,101556.53
2022-08-22T01:30:59.166Z,101564.06
2022-08-22T01:34:06.439Z,101566.66
2022-08-22T01:36:45.807Z,101585.06
2022-08-22T01:39:48.178Z,101584.91
2022-08-22T01:42:51.919Z,101583.50
2022-08-22T01:45:42.933Z,101586.75
2022-08-22T01:48:27.900Z,101595.91
2022-08-22T01:51:01.289Z,101579.63
2022-08-22T01:53:30.457Z,101597.41
2022-08-22T01:56:06.535Z,101590.34
2022-08-22T01:58:37.226Z,101592.03
2022-08-22T02:01:25.539Z,101600.94
2022-08-22T02:04:00.843Z,101607.88
2022-08-22T02:07:06.151Z,101605.84
2022-08-22T02:09:44.223Z,101606.00
2022-08-22T02:12:21.563Z,101583.81
2022-08-22T02:15:23.218Z,101580.19
2022-08-22T02:17:49.680Z,101580.13
2022-08-22T02:20:44.483Z,101587.41
2022-08-22T02:23:35.308Z,101597.22
2022-08-22T02:26:01.792Z,101583.94
2022-08-22T02:28:28.284Z,101581.09
2022-08-22T02:31:23.086Z,101576.50
2022-08-22T02:33:56.879Z,101573.34
2022-08-22T02:36:32.911Z,101579.47
2022-08-22T02:39:05.674Z,101572.34
2022-08-22T02:41:48.839Z,101572.72
2022-08-22T02:44:39.814Z,101573.16
2022-08-22T02:47:15.264Z,101573.56
2022-08-22T02:50:15.438Z,101569.81
2022-08-22T02:53:05.468Z,101566.78
2022-08-22T02:55:54.050Z,101573.19
2022-08-22T02:58:26.269Z,101568.47
2022-08-22T03:01:28.087Z,101563.72
2022-08-22T03:04:17.090Z,101556.50
2022-08-22T03:07:00.179Z,101552.47
2022-08-22T03:09:35.740Z,101546.44
2022-08-22T03:12:16.057Z,101535.72
2022-08-22T03:14:43.382Z,101546.53
2022-08-22T03:17:23.950Z,101541.34
2022-08-22T03:20:03.981Z,101551.00
2022-08-22T03:22:49.261Z,101544.56
2022-08-22T03:25:23.982Z,101541.34
2022-08-22T03:28:03.437Z,101539.75
2022-08-22T03:30:40.696Z,101538.94
2022-08-22T03:33:23.674Z,101541.69
2022-08-22T03:36:04.976Z,101542.06
2022-08-22T03:38:34.285Z,101538.53
2022-08-22T03:41:12.719Z,101540.97
2022-08-22T03:44:11.689Z,101536.59
2022-08-22T03:47:00.104Z,101533.38
2022-08-22T03:49:45.287Z,101539.75
2022-08-22T03:53:10.418Z,101535.50
2022-08-22T03:56:17.042Z,101535.16
2022-08-22T03:59:09.918Z,101537.59
2022-08-22T04:02:01.487Z,101542.41
2022-08-22T04:04:49.252Z,101534.47
2022-08-22T04:07:31.403Z,101549.34
2022-08-22T04:10:07.749Z,101536.19
2022-08-22T04:12:38.251Z,101549.34
2022-08-22T04:15:28.171Z,101547.38
2022-08-22T04:18:27.377Z,101544.00
2022-08-22T04:20:56.784Z,101545.41
2022-08-22T04:23:41.138Z,101542.91
2022-08-22T04:26:15.679Z,101531.78
2022-08-22T04:28:50.899Z,101544.72
2022-08-22T04:31:29.884Z,101550.47
2022-08-22T04:34:02.511Z,101544.56
2022-08-22T04:36:41.756Z,101537.03
2022-08-22T04:39:21.129Z,101541.69
2022-08-22T04:42:16.058Z,101557.59
2022-08-22T04:44:49.245Z,101562.81
2022-08-22T04:47:47.145Z,101544.59
2022-08-22T04:50:29.277Z,101546.69
2022-08-22T04:53:08.019Z,101564.19
2022-08-22T04:55:55.832Z,101570.59
2022-08-22T04:58:43.573Z,101565.81
2022-08-22T05:01:16.718Z,101551.84
2022-08-22T05:03:49.027Z,101564.22
2022-08-22T05:06:19.103Z,101565.66
2022-08-22T05:08:49.845Z,101559.34
2022-08-22T05:11:23.506Z,101559.16
2022-08-22T05:14:02.585Z,101562.28
2022-08-22T05:16:37.581Z,101551.50
2022-08-22T05:19:15.810Z,101571.16
2022-08-22T05:21:46.310Z,101565.59
2022-08-22T05:24:48.723Z,101572.66
2022-08-22T05:27:23.642Z,101565.44
2022-08-22T05:29:54.544Z,101562.13
2022-08-22T05:32:29.633Z,101558.59
2022-08-22T05:35:01.201Z,101558.59
2022-08-22T05:37:39.621Z,101565.34
2022-08-22T05:40:07.446Z,101568.50
2022-08-22T05:42:37.465Z,101571.75
2022-08-22T05:45:08.549Z,101572.91
2022-08-22T05:47:46.949Z,101565.66
2022-08-22T05:50:20.608Z,101556.50
2022-08-22T05:53:01.051Z,101559.63
2022-08-22T05:55:39.002Z,101557.97
2022-08-22T05:58:26.288Z,101554.84
2022-08-22T06:01:05.013Z,101560.88
2022-08-22T06:04:06.747Z,101553.94
2022-08-22T06:06:51.008Z,101570.00
2022-08-22T06:09:39.871Z,101577.81
2022-08-22T06:12:21.893Z,101570.25
2022-08-22T06:15:11.800Z,101575.84
2022-08-22T06:17:47.320Z,101569.16
2022-08-22T06:20:37.919Z,101557.59
2022-08-22T06:23:07.151Z,101574.09
2022-08-22T06:25:38.963Z,101559.81
2022-08-22T06:28:13.135Z,101567.88
2022-08-22T06:30:40.150Z,101565.19
2022-08-22T06:33:12.326Z,101557.97
2022-08-22T06:36:03.246Z,101568.75
2022-08-22T06:38:33.581Z,101560.25
2022-08-22T06:41:06.376Z,101568.59
2022-08-22T06:43:39.387Z,101567.38
2022-08-22T06:46:06.900Z,101553.66
2022-08-22T06:48:35.613Z,101560.97
2022-08-22T06:51:06.446Z,101573.66
2022-08-22T06:53:38.217Z,101573.66
2022-08-22T06:56:18.503Z,101582.34
2022-08-22T06:58:47.623Z,101569.88
2022-08-22T07:01:20.056Z,101566.38
2022-08-22T07:03:52.029Z,101557.69
2022-08-22T07:06:30.129Z,101557.09
2022-08-22T07:08:58.551Z,101555.84
2022-08-22T07:11:34.527Z,101543.28
2022-08-22T07:14:03.186Z,101523.28
2022-08-22T07:17:01.409Z,101531.72
2022-08-22T07:19:39.517Z,101524.94
2022-08-22T07:22:23.725Z,101522.56
2022-08-22T07:24:55.831Z,101518.28
2022-08-22T07:27:53.522Z,101517.09
2022-08-22T07:30:27.942Z,101521.53
2022-08-22T07:33:26.105Z,101524.28
2022-08-22T07:36:00.322Z,101526.28
2022-08-22T07:38:29.768Z,101540.81
2022-08-22T07:41:02.498Z,101532.38
2022-08-22T07:43:51.294Z,101518.38
2022-08-22T07:46:28.629Z,101533.34
2022-08-22T07:49:09.456Z,101533.38
2022-08-22T07:51:44.805Z,101529.78
2022-08-22T07:54:27.063Z,101527.44
2022-08-22T07:57:01.732Z,101531.56
2022-08-22T07:59:31.176Z,101518.97
2022-08-22T08:02:00.877Z,101524.63
2022-08-22T08:04:36.852Z,101525.50
2022-08-22T08:07:08.668Z,101521.13
2022-08-22T08:09:40.789Z,101527.28
2022-08-22T08:12:11.110Z,101520.84
2022-08-22T08:14:41.589Z,101530.69
2022-08-22T08:17:17.719Z,101507.72
2022-08-22T08:19:47.237Z,101528.16
2022-08-22T08:22:25.688Z,101528.78
2022-08-22T08:24:57.266Z,101504.81
2022-08-22T08:27:50.199Z,101515.50
2022-08-22T08:30:25.047Z,101504.75
2022-08-22T08:32:59.567Z,101508.81
2022-08-22T08:36:02.288Z,101509.72
2022-08-22T08:38:36.578Z,101521.31
2022-08-22T08:41:27.463Z,101517.97
2022-08-22T08:44:03.868Z,101525.28
2022-08-22T08:46:33.347Z,101524.84
2022-08-22T08:49:20.998Z,101521.59
2022-08-22T08:52:16.172Z,101513.72
2022-08-22T08:54:58.714Z,101509.53
2022-08-22T08:57:34.856Z,101517.97
2022-08-22T09:00:16.820Z,101511.97
2022-08-22T09:02:46.374Z,101495.84
2022-08-22T09:05:49.270Z,101494.75
2022-08-22T09:08:57.482Z,101502.91
2022-08-22T09:11:53.181Z,101512.16
2022-08-22T09:14:55.821Z,101501.53
2022-08-22T09:17:42.165Z,101493.72
2022-08-22T09:20:53.007Z,101493.50
2022-08-22T09:23:58.753Z,101491.81
2022-08-22T09:26:43.894Z,101491.38
2022-08-22T09:29:36.202Z,101494.28
2022-08-22T09:32:46.119Z,101489.38
2022-08-22T09:35:22.510Z,101496.09
2022-08-22T09:37:58.275Z,101489.00
2022-08-22T09:40:30.892Z,101481.41
2022-08-22T09:43:13.214Z,101485.50
2022-08-22T09:46:01.915Z,101476.88
2022-08-22T09:48:34.729Z,101481.56
2022-08-22T09:51:31.476Z,101486.06
2022-08-22T09:54:08.448Z,101476.81
2022-08-22T09:56:35.567Z,101480.09
2022-08-22T09:59:24.208Z,101467.97
2022-08-22T10:02:18.333Z,101467.41
2022-08-22T10:04:57.519Z,101462.56
2022-08-22T10:07:59.085Z,101467.75
2022-08-22T10:10:37.539Z,101463.78
2022-08-22T10:13:26.846Z,101452.84
2022-08-22T10:16:13.131Z,101452.63
2022-08-22T10:18:58.993Z,101451.28
2022-08-22T10:21:39.494Z,101453.75
2022-08-22T10:24:45.540Z,101447.25
2022-08-22T10:27:17.578Z,101448.66
2022-08-22T10:29:51.925Z,101449.56
2022-08-22T10:32:45.366Z,101449.94
2022-08-22T10:35:52.641Z,101446.38
2022-08-22T10:38:46.626Z,101438.88
2022-08-22T10:41:45.434Z,101421.66
2022-08-22T10:44:18.110Z,101430.81
2022-08-22T10:47:03.210Z,101419.41
2022-08-22T10:49:46.073Z,101412.13
2022-08-22T10:52:27.567Z,101418.84
2022-08-22T10:55:00.767Z,101421.00
2022-08-22T10:58:04.820Z,101427.81
2022-08-22T11:00:51.529Z,101425.22
2022-08-22T11:03:33.823Z,101427.38
2022-08-22T11:06:04.988Z,101416.28
2022-08-22T11:08:50.375Z,101419.88
2022-08-22T11:11:32.809Z,101425.97
2022-08-22T11:14:23.883Z,101423.56
2022-08-22T11:17:27.545Z,101425.31
2022-08-22T11:20:21.445Z,101422.00
2022-08-22T11:23:19.652Z,101420.69
2022-08-22T11:25:53.830Z,101405.28
2022-08-22T11:28:56.457Z,101427.03
2022-08-22T11:31:23.011Z,101407.81
2022-08-22T11:33:59.675Z,101413.97
2022-08-22T11:36:50.682Z,101419.78
2022-08-22T11:39:27.649Z,101430.59
2022-08-22T11:42:14.480Z,101418.25
2022-08-22T11:44:57.291Z,101410.81
2022-08-22T11:47:29.208Z,101428.41
2022-08-22T11:50:01.399Z,101413.44
2022-08-22T11:52:42.980Z,101419.34
2022-08-22T11:55:38.639Z,101411.66
2022-08-22T11:58:29.250Z,101415.69
2022-08-22T12:01:00.421Z,101415.88
2022-08-22T12:03:37.526Z,101417.75
2022-08-22T12:06:27.535Z,101408.50
2022-08-22T12:09:20.757Z,101416.25
2022-08-22T12:12:15.040Z,101412.41
2022-08-22T12:15:09.155Z,101418.50
2022-08-22T12:18:20.014Z,101406.84
2022-08-22T12:20:57.155Z,101402.88
2022-08-22T12:24:05.994Z,101403.69
2022-08-22T12:26:51.447Z,101411.91
2022-08-22T12:29:33.373Z,101405.47
2022-08-22T12:32:34.870Z,101390.97
2022-08-22T12:35:14.452Z,101396.81
2022-08-22T12:37:52.837Z,101393.03
2022-08-22T12:40:29.323Z,101382.16
2022-08-22T12:43:22.653Z,101381.06
2022-08-22T12:46:13.390Z,101374.38
2022-08-22T12:49:17.269Z,101373.16
2022-08-22T12:52:21.618Z,101371.44
2022-08-22T12:55:22.340Z,101361.34
2022-08-22T12:58:31.705Z,101357.72
2022-08-22T13:01:06.352Z,101357.69
2022-08-22T13:03:44.309Z,101361.63
2022-08-22T13:06:36.028Z,101368.78
2022-08-22T13:09:19.103Z,101352.50
2022-08-22T13:11:54.617Z,101358.09
2022-08-22T13:14:27.363Z,101364.38
2022-08-22T13:16:59.005Z,101353.19
2022-08-22T13:19:29.039Z,101356.28
2022-08-22T13:22:02.950Z,101355.13
2022-08-22T13:25:08.482Z,101347.97
2022-08-22T13:27:51.137Z,101349.94
2022-08-22T13:30:27.727Z,101346.41
2022-08-22T13:33:03.238Z,101359.78
2022-08-22T13:35:35.543Z,101345.31
2022-08-22T13:38:13.374Z,101340.41
2022-08-22T13:40:47.037Z,101338.88
2022-08-22T13:43:21.111Z,101339.16
2022-08-22T13:46:11.049Z,101333.59
2022-08-22T13:49:00.788Z,101332.94
2022-08-22T13:51:40.280Z,101332.78
2022-08-22T13:54:11.292Z,101325.56
2022-08-22T13:56:47.450Z,101329.97
2022-08-22T13:59:50.071Z,101319.47
2022-08-22T14:02:51.706Z,101323.16
2022-08-22T14:05:36.931Z,101324.88
2022-08-22T14:08:12.501Z,101324.66
2022-08-22T14:10:55.183Z,101325.94
2022-08-22T14:13:38.904Z,101321.84
2022-08-22T14:16:19.610Z,101318.09
2022-08-22T14:18:56.537Z,101327.16
2022-08-22T14:21:47.230Z,101328.19
2022-08-22T14:24:25.815Z,101316.66
2022-08-22T14:27:06.536Z,101313.56
2022-08-22T14:29:50.776Z,101318.41
2022-08-22T14:32:26.788Z,101313.00
2022-08-22T14:35:29.232Z,101309.44
2022-08-22T14:38:21.059Z,101312.41
2022-08-22T14:41:01.923Z,101304.66
2022-08-22T14:43:29.942Z,101309.69
2022-08-22T14:46:04.149Z,101307.38
2022-08-22T14:48:44.454Z,101305.59
2022-08-22T14:51:23.087Z,101297.22
2022-08-22T14:53:50.540Z,101305.28
2022-08-22T14:56:27.750Z,101304.84
2022-08-22T14:59:02.545Z,101303.59
2022-08-22T15:01:33.105Z,101295.06
2022-08-22T15:04:08.011Z,101305.34
2022-08-22T15:06:39.611Z,101291.03
2022-08-22T15:09:35.523Z,101292.63
2022-08-22T15:12:06.127Z,101288.28
2022-08-22T15:14:35.456Z,101285.38
2022-08-22T15:17:06.112Z,101287.88
2022-08-22T15:19:32.686Z,101285.81
2022-08-22T15:22:21.904Z,101280.47
2022-08-22T15:24:57.147Z,101284.72
2022-08-22T15:27:25.508Z,101269.41
2022-08-22T15:30:01.127Z,101268.66
2022-08-22T15:32:31.880Z,101268.03
2022-08-22T15:35:10.246Z,101265.31
2022-08-22T15:38:02.193Z,101261.19
2022-08-22T15:40:28.762Z,101266.69
2022-08-22T15:42:58.314Z,101257.25
2022-08-22T15:45:37.296Z,101267.91
2022-08-22T15:48:28.095Z,101260.72
2022-08-22T15:51:01.311Z,101264.84
2022-08-22T15:54:24.830Z,101253.75
2022-08-22T15:56:51.962Z,101247.91
2022-08-22T15:59:28.670Z,101238.69
2022-08-22T16:02:20.756Z,101239.53
2022-08-22T16:05:03.894Z,101242.41
2022-08-22T16:07:39.199Z,101242.78
2022-08-22T16:10:11.431Z,101237.31
2022-08-22T16:12:47.762Z,101236.53
2022-08-22T16:15:54.095Z,101238.09
2022-08-22T16:18:39.342Z,101240.84
2022-08-22T16:21:16.849Z,101233.81
2022-08-22T16:23:46.426Z,101235.91
2022-08-22T16:26:31.010Z,101219.41
2022-08-22T16:28:58.762Z,101219.69
2022-08-22T16:31:37.752Z,101218.91
2022-08-22T16:34:16.395Z,101222.66
2022-08-22T16:37:12.052Z,101233.94
2022-08-22T16:40:14.770Z,101229.03
2022-08-22T16:42:46.503Z,101218.41
2022-08-22T16:45:33.683Z,101210.59
2022-08-22T16:48:34.575Z,101215.53
2022-08-22T16:51:12.035Z,101214.94
2022-08-22T16:53:38.999Z,101206.38
2022-08-22T16:56:39.729Z,101217.38
2022-08-22T16:59:38.600Z,101213.25
2022-08-22T17:02:16.508Z,101217.97
2022-08-22T17:05:22.175Z,101213.38
2022-08-22T17:07:59.075Z,101202.75
2022-08-22T17:10:58.244Z,101216.75
2022-08-22T17:14:03.158Z,101216.44
2022-08-22T17:16:53.397Z,101222.09
2022-08-22T17:19:42.247Z,101210.44
2022-08-22T17:22:27.167Z,101224.44
2022-08-22T17:25:23.179Z,101216.72
2022-08-22T17:28:00.749Z,101223.97
2022-08-22T17:30:37.602Z,101222.06
2022-08-22T17:33:09.901Z,101224.28
2022-08-22T17:36:26.394Z,101226.50
2022-08-22T17:39:03.129Z,101223.03
2022-08-22T17:41:50.982Z,101219.84
2022-08-22T17:44:31.531Z,101224.59
2022-08-22T17:47:16.920Z,101229.28
2022-08-22T17:49:45.921Z,101226.81
2022-08-22T17:52:31.374Z,101239.31
2022-08-22T17:55:21.974Z,101225.94
2022-08-22T17:57:56.016Z,101227.34
2022-08-22T18:00:30.838Z,101230.38
2022-08-22T18:03:06.622Z,101233.13
2022-08-22T18:06:01.448Z,101233.72
2022-08-22T18:09:13.470Z,101244.06
2022-08-22T18:11:51.643Z,101229.22
2022-08-22T18:14:28.645Z,101238.09
2022-08-22T18:16:59.121Z,101237.09
2022-08-22T18:20:10.574Z,101240.34
2022-08-22T18:22:39.923Z,101241.13
2022-08-22T18:25:10.858Z,101235.22
2022-08-22T18:27:51.648Z,101240.63
2022-08-22T18:30:23.184Z,101237.94
2022-08-22T18:33:13.149Z,101230.31
2022-08-22T18:35:53.789Z,101241.78
2022-08-22T18:38:36.465Z,101243.78
2022-08-22T18:41:22.238Z,101247.03
2022-08-22T18:43:50.805Z,101252.28
2022-08-22T18:46:52.016Z,101246.25
2022-08-22T18:49:19.644Z,101248.63
2022-08-22T18:52:05.416Z,101253.09
2022-08-22T18:55:00.876Z,101257.03
2022-08-22T18:58:01.461Z,101260.97
2022-08-22T19:01:01.624Z,101261.63
2022-08-22T19:03:40.677Z,101255.78
2022-08-22T19:06:42.816Z,101264.72
2022-08-22T19:09:19.122Z,101263.00
2022-08-22T19:12:01.342Z,101271.97
2022-08-22T19:15:05.961Z,101281.22
2022-08-22T19:17:59.007Z,101275.97
2022-08-22T19:20:55.106Z,101276.88
2022-08-22T19:23:43.614Z,101272.84
2022-08-22T19:26:31.729Z,101287.28
2022-08-22T19:29:30.198Z,101279.63
2022-08-22T19:32:02.076Z,101272.63
2022-08-22T19:34:32.747Z,101273.84
2022-08-22T19:37:31.947Z,101268.22
2022-08-22T19:40:09.316Z,101271.97
2022-08-22T19:42:39.738Z,101275.09
2022-08-22T19:45:29.292Z,101276.94
2022-08-22T19:48:11.753Z,101276.94
2022-08-22T19:50:41.128Z,101274.72
2022-08-22T19:53:34.544Z,101264.34
2022-08-22T19:56:13.632Z,101275.28
2022-08-22T19:59:06.788Z,101274.25
2022-08-22T20:01:43.499Z,101275.09
2022-08-22T20:04:41.159Z,101277.78
2022-08-22T20:07:24.476Z,101275.97
2022-08-22T20:10:08.775Z,101278.88
2022-08-22T20:13:11.858Z,101280.25
2022-08-22T20:16:00.249Z,101271.09
2022-08-22T20:19:06.069Z,101267.16
2022-08-22T20:21:42.311Z,101273.13
2022-08-22T20:24:40.011Z,101275.25
2022-08-22T20:27:15.951Z,101276.72
2022-08-22T20:29:49.651Z,101268.81
2022-08-22T20:32:19.411Z,101264.78
2022-08-22T20:34:47.509Z,101263.66
2022-08-22T20:37:32.215Z,101268.72
2022-08-22T20:40:57.364Z,101274.16
2022-08-22T20:43:34.884Z,101266.34
2022-08-22T20:46:32.703Z,101270.03
2022-08-22T20:49:01.038Z,101269.13
2022-08-22T20:51:32.108Z,101271.09
2022-08-22T20:54:10.294Z,101265.25
2022-08-22T20:56:53.283Z,101265.84
2022-08-22T20:59:37.170Z,101266.00
2022-08-22T21:02:19.164Z,101261.13
2022-08-22T21:04:52.720Z,101266.03
2022-08-22T21:07:42.271Z,101264.13
2022-08-22T21:10:43.787Z,101263.78
2022-08-22T21:13:21.798Z,101253.31
2022-08-22T21:15:55.906Z,101261.16
2022-08-22T21:18:28.675Z,101260.06
2022-08-22T21:21:12.763Z,101237.09
2022-08-22T21:24:00.775Z,101262.94
2022-08-22T21:26:38.865Z,101264.03
2022-08-22T21:29:21.083Z,101260.50
2022-08-22T21:31:54.413Z,101260.09
2022-08-22T21:34:36.280Z,101240.72
2022-08-22T21:37:18.032Z,101265.25
2022-08-22T21:39:49.324Z,101253.13
2022-08-22T21:42:25.276Z,101252.44
2022-08-22T21:44:57.851Z,101266.13
2022-08-22T21:47:37.084Z,101270.88
2022-08-22T21:50:12.783Z,101274.41
2022-08-22T21:52:41.292Z,101270.13
2022-08-22T21:55:27.137Z,101267.66
2022-08-22T21:58:07.473Z,101266.28
2022-08-22T22:01:01.354Z,101275.53
2022-08-22T22:03:37.490Z,101275.53
2022-08-22T22:06:06.515Z,101265.47
2022-08-22T22:08:33.967Z,101275.28
2022-08-22T22:11:08.388Z,101270.88
2022-08-22T22:13:35.626Z,101272.88
2022-08-22T22:16:03.081Z,101277.91
2022-08-22T22:18:34.017Z,101274.19
2022-08-22T22:21:01.705Z,101267.22
2022-08-22T22:23:28.648Z,101265.72
2022-08-22T22:25:57.795Z,101275.84
2022-08-22T22:28:30.522Z,101268.22
2022-08-22T22:30:57.348Z,101269.63
2022-08-22T22:33:26.944Z,101282.06
2022-08-22T22:35:57.185Z,101285.09
2022-08-22T22:38:24.392Z,101271.06
2022-08-22T22:40:52.091Z,101271.06
2022-08-22T22:43:19.557Z,101278.91
2022-08-22T22:45:46.230Z,101267.75
2022-08-22T22:48:13.409Z,101278.97
2022-08-22T22:50:45.400Z,101268.47
2022-08-22T22:53:12.356Z,101290.56
2022-08-22T22:56:00.086Z,101295.75
2022-08-22T22:58:28.601Z,101300.97
2022-08-22T23:00:56.085Z,101297.13
2022-08-22T23:03:23.292Z,101300.78
2022-08-22T23:05:49.924Z,101315.78
2022-08-22T23:08:16.696Z,101313.84
2022-08-22T23:10:43.236Z,101294.66
2022-08-22T23:13:09.960Z,101310.75
2022-08-22T23:15:37.448Z,101312.22
2022-08-22T23:18:04.362Z,101313.69
2022-08-22T23:20:31.099Z,101302.19
2022-08-22T23:22:59.498Z,101300.38
2022-08-22T23:25:26.599Z,101291.25
2022-08-22T23:27:53.417Z,101282.19
2022-08-22T23:30:21.120Z,101303.72
2022-08-22T23:32:48.051Z,101295.63
2022-08-22T23:35:14.577Z,101305.66
2022-08-22T23:37:41.226Z,101306.59
2022-08-22T23:40:09.516Z,101294.63
2022-08-22T23:42:36.280Z,101291.00
2022-08-22T23:45:03.280Z,101310.34
2022-08-22T23:47:29.913Z,101293.28
2022-08-22T23:49:56.489Z,101308.03
2022-08-22T23:52:23.110Z,101308.00
2022-08-22T23:54:55.527Z,101319.63
2022-08-22T23:57:26.409Z,101296.03
2022-08-22T23:59:57.413Z,101313.69
